Terminal Aerodrome Forecast
Issued by NWS Cleveland, OH

Home | Current Version | Previous Version | Text Only | Print | Product List | Glossary On
Versions: 1 2 3 4 5 6 7 8 9 10 11 12 13
357
FTUS41 KCLE 290559 CCA
TAFMFD
TAF COR
KMFD 290559Z 2906/3006 VRB03KT 6SM BR SCT005
      TEMPO 2907/2909 5SM BR BKN003
     FM290900 VRB03KT 2SM BR OVC002
      TEMPO 2912/2914 6SM HZ BKN006
     FM291400 VRB03KT P6SM BKN015
     FM291900 36004KT P6SM VCTS BKN045CB
     FM300000 VRB03KT P6SM SCT060 OVC100=

USA.gov is the U.S. government's official web portal to all federal, state and local government web resources and services.